Time,TemperatureF,DewpointF,PressureIn,WindDirection,WindDirectionDegrees,WindSpeedMPH,WindSpeedGustMPH,Humidity,HourlyPrecipIn,Conditions,Clouds,dailyrainin,SoftwareType,DateUTC
2014-04-16 00:01:00,48.8,31.9,30.14,SE,135,1.1,6.3,52,0.00,,,0.00,WUHU216HW,2014-04-16 05:01:00,
2014-04-16 00:06:00,48.6,32.1,30.14,SE,135,0.7,4.3,53,0.00,,,0.00,WUHU216HW,2014-04-16 05:06:00,
2014-04-16 00:11:00,48.6,32.1,30.13,South,180,1.1,2.5,53,0.00,,,0.00,WUHU216HW,2014-04-16 05:11:00,
2014-04-16 00:16:00,48.2,32.3,30.13,SE,135,1.8,2.5,54,0.00,,,0.00,WUHU216HW,2014-04-16 05:16:00,
2014-04-16 00:21:00,47.9,32.0,30.13,SSE,158,0.4,2.5,54,0.00,,,0.00,WUHU216HW,2014-04-16 05:21:00,
2014-04-16 00:26:00,47.7,31.8,30.13,SE,135,1.3,2.0,54,0.00,,,0.00,WUHU216HW,2014-04-16 05:26:00,
2014-04-16 00:31:00,47.5,31.6,30.13,ESE,113,1.6,2.5,54,0.00,,,0.00,WUHU216HW,2014-04-16 05:31:00,
2014-04-16 00:36:00,47.5,32.0,30.13,South,180,2.5,2.5,55,0.00,,,0.00,WUHU216HW,2014-04-16 05:36:00,
2014-04-16 00:41:00,47.3,31.9,30.13,ESE,113,0.4,3.8,55,0.00,,,0.00,WUHU216HW,2014-04-16 05:41:00,
2014-04-16 00:46:00,47.3,31.9,30.13,SE,135,0.0,3.8,55,0.00,,,0.00,WUHU216HW,2014-04-16 05:46:00,
2014-04-16 00:51:00,47.2,32.2,30.13,SSE,158,0.7,1.8,56,0.00,,,0.00,WUHU216HW,2014-04-16 05:51:00,
2014-04-16 00:56:00,47.0,32.1,30.13,SE,135,0.0,0.9,56,0.00,,,0.00,WUHU216HW,2014-04-16 05:56:00,
2014-04-16 01:01:00,46.8,31.9,30.13,ESE,113,0.0,0.9,56,0.00,,,0.00,WUHU216HW,2014-04-16 06:01:00,
2014-04-16 01:06:00,46.8,31.9,30.13,SSW,203,0.0,0.7,56,0.00,,,0.00,WUHU216HW,2014-04-16 06:06:00,
2014-04-16 01:11:00,46.6,32.1,30.13,SE,135,0.7,1.1,57,0.00,,,0.00,WUHU216HW,2014-04-16 06:11:00,
2014-04-16 01:16:00,46.6,32.1,30.13,SE,135,0.0,1.1,57,0.00,,,0.00,WUHU216HW,2014-04-16 06:16:00,
2014-04-16 01:21:00,46.4,32.0,30.13,SE,135,0.0,0.7,57,0.00,,,0.00,WUHU216HW,2014-04-16 06:21:00,
2014-04-16 01:26:00,46.4,32.0,30.13,ENE,68,0.0,0.0,57,0.00,,,0.00,WUHU216HW,2014-04-16 06:26:00,
2014-04-16 01:31:00,46.3,31.8,30.12,East,90,0.4,0.9,57,0.00,,,0.00,WUHU216HW,2014-04-16 06:31:00,
2014-04-16 01:36:00,46.1,31.6,30.12,ENE,68,0.9,1.3,57,0.00,,,0.00,WUHU216HW,2014-04-16 06:36:00,
2014-04-16 01:41:00,45.7,31.3,30.13,East,90,0.9,1.3,57,0.00,,,0.00,WUHU216HW,2014-04-16 06:41:00,
2014-04-16 01:46:00,45.5,31.1,30.12,East,90,0.0,1.3,57,0.01,,,0.01,WUHU216HW,2014-04-16 06:46:00,
2014-04-16 01:51:00,45.7,31.8,30.12,East,90,0.0,0.9,58,0.02,,,0.02,WUHU216HW,2014-04-16 06:51:00,
2014-04-16 01:56:00,45.5,32.0,30.12,ESE,113,0.0,1.1,59,0.05,,,0.05,WUHU216HW,2014-04-16 06:56:00,
2014-04-16 02:01:00,45.4,31.9,30.12,ESE,113,0.0,1.1,59,0.09,,,0.09,WUHU216HW,2014-04-16 07:01:00,
2014-04-16 02:06:00,45.2,31.7,30.12,SSE,158,1.1,1.3,59,0.11,,,0.11,WUHU216HW,2014-04-16 07:06:00,
2014-04-16 02:11:00,45.2,32.1,30.12,South,180,1.1,1.8,60,0.11,,,0.11,WUHU216HW,2014-04-16 07:11:00,
2014-04-16 02:16:00,45.4,33.1,30.12,SE,135,0.9,1.8,62,0.11,,,0.11,WUHU216HW,2014-04-16 07:16:00,
2014-04-16 02:21:00,45.2,33.3,30.12,ESE,113,0.2,1.8,63,0.11,,,0.11,WUHU216HW,2014-04-16 07:21:00,
2014-04-16 02:26:00,45.0,33.1,30.12,ESE,113,0.0,1.3,63,0.11,,,0.11,WUHU216HW,2014-04-16 07:26:00,
2014-04-16 02:31:00,44.6,32.9,30.12,South,180,0.0,0.7,63,0.11,,,0.11,WUHU216HW,2014-04-16 07:31:00,
2014-04-16 02:36:00,44.5,32.7,30.12,ENE,68,0.7,0.9,63,0.11,,,0.11,WUHU216HW,2014-04-16 07:36:00,
2014-04-16 02:41:00,44.3,32.5,30.11,SE,135,1.1,2.0,63,0.11,,,0.11,WUHU216HW,2014-04-16 07:41:00,
2014-04-16 02:46:00,44.3,32.5,30.11,ESE,113,0.7,2.0,63,0.10,,,0.11,WUHU216HW,2014-04-16 07:46:00,
2014-04-16 02:51:00,44.3,32.5,30.11,SE,135,1.6,1.6,63,0.09,,,0.11,WUHU216HW,2014-04-16 07:51:00,
2014-04-16 02:56:00,44.1,32.3,30.11,ESE,113,0.7,1.8,63,0.03,,,0.11,WUHU216HW,2014-04-16 07:56:00,
2014-04-16 03:01:00,44.1,32.3,30.11,SSE,158,0.7,1.8,63,0.01,,,0.11,WUHU216HW,2014-04-16 08:01:00,
2014-04-16 03:06:00,43.9,32.1,30.11,ESE,113,0.4,1.1,63,0.00,,,0.11,WUHU216HW,2014-04-16 08:06:00,
2014-04-16 03:11:00,43.7,32.3,30.10,SE,135,0.9,1.8,64,0.00,,,0.11,WUHU216HW,2014-04-16 08:11:00,
2014-04-16 03:16:00,43.6,32.1,30.10,South,180,0.0,1.8,64,0.00,,,0.11,WUHU216HW,2014-04-16 08:16:00,
2014-04-16 03:21:00,43.6,32.1,30.10,SSE,158,0.0,1.1,64,0.00,,,0.11,WUHU216HW,2014-04-16 08:21:00,
2014-04-16 03:26:00,43.6,32.1,30.10,SE,135,0.7,0.9,64,0.00,,,0.11,WUHU216HW,2014-04-16 08:26:00,
2014-04-16 03:31:00,43.4,32.0,30.09,ESE,113,0.0,0.7,64,0.00,,,0.11,WUHU216HW,2014-04-16 08:31:00,
2014-04-16 03:36:00,43.4,32.4,30.09,East,90,0.9,0.9,65,0.00,,,0.11,WUHU216HW,2014-04-16 08:36:00,
2014-04-16 03:41:00,43.4,32.4,30.09,ESE,113,0.4,1.1,65,0.00,,,0.11,WUHU216HW,2014-04-16 08:41:00,
2014-04-16 03:46:00,43.4,32.4,30.09,ESE,113,0.0,1.1,65,0.00,,,0.11,WUHU216HW,2014-04-16 08:46:00,
2014-04-16 03:51:00,43.2,32.2,30.09,SSE,158,0.7,0.9,65,0.00,,,0.11,WUHU216HW,2014-04-16 08:51:00,
2014-04-16 03:56:00,43.2,32.2,30.09,SSE,158,0.9,1.1,65,0.00,,,0.11,WUHU216HW,2014-04-16 08:56:00,
2014-04-16 04:01:00,43.0,32.4,30.09,SSE,158,0.0,1.6,66,0.00,,,0.11,WUHU216HW,2014-04-16 09:01:00,
2014-04-16 04:06:00,43.0,32.4,30.09,SSE,158,0.0,1.6,66,0.00,,,0.11,WUHU216HW,2014-04-16 09:06:00,
2014-04-16 04:11:00,43.0,32.9,30.10,SSE,158,0.0,1.1,67,0.00,,,0.11,WUHU216HW,2014-04-16 09:11:00,
2014-04-16 04:16:00,43.0,32.9,30.09,SE,135,0.0,0.4,67,0.00,,,0.11,WUHU216HW,2014-04-16 09:16:00,
2014-04-16 04:21:00,42.8,32.7,30.09,SSE,158,0.9,1.1,67,0.00,,,0.11,WUHU216HW,2014-04-16 09:21:00,
2014-04-16 04:26:00,42.8,32.7,30.09,SSE,158,0.4,1.6,67,0.00,,,0.11,WUHU216HW,2014-04-16 09:26:00,
2014-04-16 04:31:00,42.7,32.0,30.10,SSE,158,1.1,1.8,66,0.00,,,0.11,WUHU216HW,2014-04-16 09:31:00,
2014-04-16 04:36:00,42.7,32.0,30.10,SE,135,1.1,2.0,66,0.00,,,0.11,WUHU216HW,2014-04-16 09:36:00,
2014-04-16 04:41:00,42.5,32.3,30.10,SSE,158,1.6,2.0,67,0.00,,,0.11,WUHU216HW,2014-04-16 09:41:00,
2014-04-16 04:46:00,42.3,32.1,30.10,SSE,158,1.8,1.8,67,0.01,,,0.12,WUHU216HW,2014-04-16 09:46:00,
2014-04-16 04:51:00,42.1,32.3,30.10,South,180,0.7,2.5,68,0.03,,,0.14,WUHU216HW,2014-04-16 09:51:00,
2014-04-16 04:56:00,42.1,32.3,30.10,SE,135,0.4,2.5,68,0.07,,,0.18,WUHU216HW,2014-04-16 09:56:00,
2014-04-16 05:01:00,41.9,31.8,30.10,SSE,158,1.8,3.4,67,0.10,,,0.22,WUHU216HW,2014-04-16 10:01:00,
2014-04-16 05:06:00,41.9,31.8,30.10,SSE,158,1.1,3.4,67,0.11,,,0.22,WUHU216HW,2014-04-16 10:06:00,
2014-04-16 05:11:00,41.9,32.6,30.10,SE,135,2.2,3.1,69,0.12,,,0.24,WUHU216HW,2014-04-16 10:11:00,
2014-04-16 05:16:00,41.9,32.6,30.10,SSE,158,2.2,2.7,69,0.12,,,0.24,WUHU216HW,2014-04-16 10:16:00,
2014-04-16 05:21:00,42.1,32.8,30.10,South,180,1.8,2.7,69,0.12,,,0.24,WUHU216HW,2014-04-16 10:21:00,
2014-04-16 05:26:00,42.1,32.8,30.10,SE,135,3.1,4.0,69,0.12,,,0.24,WUHU216HW,2014-04-16 10:26:00,
2014-04-16 05:31:00,42.3,32.5,30.10,ESE,113,2.2,4.0,68,0.12,,,0.24,WUHU216HW,2014-04-16 10:31:00,
2014-04-16 05:36:00,42.1,32.3,30.10,South,180,1.3,3.4,68,0.12,,,0.24,WUHU216HW,2014-04-16 10:36:00,
2014-04-16 05:41:00,42.3,32.5,30.10,South,180,1.8,2.9,68,0.12,,,0.24,WUHU216HW,2014-04-16 10:41:00,
2014-04-16 05:46:00,42.3,32.5,30.11,South,180,3.8,4.7,68,0.10,,,0.24,WUHU216HW,2014-04-16 10:46:00,
2014-04-16 05:51:00,42.5,32.3,30.11,SSE,158,2.7,4.7,67,0.09,,,0.24,WUHU216HW,2014-04-16 10:51:00,
2014-04-16 05:56:00,42.5,32.3,30.11,SSE,158,3.4,4.0,67,0.03,,,0.24,WUHU216HW,2014-04-16 10:56:00,
2014-04-16 06:01:00,42.5,32.3,30.11,SSE,158,2.9,4.0,67,0.01,,,0.24,WUHU216HW,2014-04-16 11:01:00,
2014-04-16 06:06:00,42.3,32.1,30.10,SSE,158,3.8,4.5,67,0.00,,,0.24,WUHU216HW,2014-04-16 11:06:00,
2014-04-16 06:11:00,42.3,32.1,30.11,South,180,2.0,4.5,67,0.00,,,0.24,WUHU216HW,2014-04-16 11:11:00,
2014-04-16 06:16:00,42.1,32.0,30.10,South,180,2.5,4.0,67,0.00,,,0.24,WUHU216HW,2014-04-16 11:16:00,
2014-04-16 06:21:00,42.1,32.0,30.11,South,180,2.5,4.0,67,0.00,,,0.24,WUHU216HW,2014-04-16 11:21:00,
2014-04-16 06:26:00,42.1,32.3,30.11,SE,135,3.6,4.0,68,0.00,,,0.24,WUHU216HW,2014-04-16 11:26:00,
2014-04-16 06:31:00,41.9,32.1,30.11,South,180,2.5,4.0,68,0.00,,,0.24,WUHU216HW,2014-04-16 11:31:00,
2014-04-16 06:36:00,41.9,31.8,30.11,South,180,2.2,4.0,67,0.00,,,0.24,WUHU216HW,2014-04-16 11:36:00,
2014-04-16 06:41:00,41.9,31.8,30.11,SE,135,0.7,3.6,67,0.00,,,0.24,WUHU216HW,2014-04-16 11:41:00,
2014-04-16 06:46:00,41.8,31.6,30.11,South,180,2.2,3.6,67,0.00,,,0.24,WUHU216HW,2014-04-16 11:46:00,
2014-04-16 06:51:00,41.6,31.4,30.11,SSE,158,2.5,4.0,67,0.00,,,0.24,WUHU216HW,2014-04-16 11:51:00,
2014-04-16 06:56:00,41.4,31.2,30.11,SSE,158,2.9,4.5,67,0.00,,,0.24,WUHU216HW,2014-04-16 11:56:00,
2014-04-16 07:01:00,41.4,31.2,30.12,South,180,4.0,4.5,67,0.00,,,0.24,WUHU216HW,2014-04-16 12:01:00,
2014-04-16 07:06:00,41.6,31.4,30.12,SE,135,3.6,4.3,67,0.00,,,0.24,WUHU216HW,2014-04-16 12:06:00,
2014-04-16 07:11:00,41.8,31.6,30.12,South,180,2.5,4.7,67,0.00,,,0.24,WUHU216HW,2014-04-16 12:11:00,
2014-04-16 07:16:00,41.6,31.8,30.12,SE,135,2.5,4.7,68,0.00,,,0.24,WUHU216HW,2014-04-16 12:16:00,
2014-04-16 07:21:00,41.9,32.1,30.12,South,180,3.6,4.0,68,0.00,,,0.24,WUHU216HW,2014-04-16 12:21:00,
2014-04-16 07:26:00,42.3,33.0,30.12,SSE,158,2.5,4.5,69,0.00,,,0.24,WUHU216HW,2014-04-16 12:26:00,
2014-04-16 07:31:00,42.8,33.5,30.13,South,180,1.8,5.6,69,0.00,,,0.24,WUHU216HW,2014-04-16 12:31:00,
2014-04-16 07:36:00,43.4,33.6,30.13,SSE,158,3.4,5.6,68,0.00,,,0.24,WUHU216HW,2014-04-16 12:36:00,
2014-04-16 07:41:00,43.9,34.0,30.13,South,180,4.5,5.4,68,0.00,,,0.24,WUHU216HW,2014-04-16 12:41:00,
2014-04-16 07:46:00,44.3,34.4,30.13,SSE,158,4.9,8.1,68,0.00,,,0.24,WUHU216HW,2014-04-16 12:46:00,
2014-04-16 07:51:00,44.8,34.9,30.13,South,180,4.0,8.1,68,0.00,,,0.24,WUHU216HW,2014-04-16 12:51:00,
2014-04-16 07:56:00,45.0,35.1,30.13,SSE,158,3.6,6.0,68,0.00,,,0.24,WUHU216HW,2014-04-16 12:56:00,
2014-04-16 08:01:00,45.4,35.0,30.13,South,180,2.9,6.3,67,0.00,,,0.24,WUHU216HW,2014-04-16 13:01:00,
2014-04-16 08:06:00,45.4,34.7,30.14,South,180,6.3,7.2,66,0.00,,,0.24,WUHU216HW,2014-04-16 13:06:00,
2014-04-16 08:11:00,45.4,34.7,30.14,SSW,203,3.8,8.5,66,0.00,,,0.24,WUHU216HW,2014-04-16 13:11:00,
2014-04-16 08:16:00,45.7,34.6,30.14,SSE,158,8.1,10.3,65,0.00,,,0.24,WUHU216HW,2014-04-16 13:16:00,
2014-04-16 08:21:00,45.9,34.7,30.14,SSE,158,4.7,10.3,65,0.00,,,0.24,WUHU216HW,2014-04-16 13:21:00,
2014-04-16 08:26:00,46.1,34.9,30.14,SSE,158,5.4,8.5,65,0.00,,,0.24,WUHU216HW,2014-04-16 13:26:00,
2014-04-16 08:31:00,46.3,35.1,30.14,SSE,158,5.1,7.8,65,0.00,,,0.24,WUHU216HW,2014-04-16 13:31:00,
2014-04-16 08:36:00,46.6,35.1,30.14,SSE,158,4.0,8.5,64,0.00,,,0.24,WUHU216HW,2014-04-16 13:36:00,
2014-04-16 08:41:00,47.3,35.7,30.14,SE,135,5.4,8.5,64,0.00,,,0.24,WUHU216HW,2014-04-16 13:41:00,
2014-04-16 08:46:00,47.9,35.9,30.14,SE,135,5.6,8.9,63,0.00,,,0.24,WUHU216HW,2014-04-16 13:46:00,
2014-04-16 08:51:00,48.4,36.4,30.14,SSE,158,5.4,8.9,63,0.00,,,0.24,WUHU216HW,2014-04-16 13:51:00,
2014-04-16 08:56:00,49.0,36.6,30.14,SE,135,6.0,8.7,62,0.00,,,0.24,WUHU216HW,2014-04-16 13:56:00,
2014-04-16 09:01:00,49.3,36.8,30.14,South,180,8.5,10.5,62,0.00,,,0.24,WUHU216HW,2014-04-16 14:01:00,
2014-04-16 09:06:00,49.7,36.4,30.14,SSE,158,11.4,12.5,60,0.00,,,0.24,WUHU216HW,2014-04-16 14:06:00,
2014-04-16 09:11:00,50.2,36.9,30.14,South,180,9.2,13.2,60,0.00,,,0.24,WUHU216HW,2014-04-16 14:11:00,
2014-04-16 09:16:00,51.1,37.7,30.14,SSE,158,9.2,13.2,60,0.00,,,0.24,WUHU216HW,2014-04-16 14:16:00,
2014-04-16 09:21:00,51.8,37.0,30.13,SSE,158,8.7,12.3,57,0.00,,,0.24,WUHU216HW,2014-04-16 14:21:00,
2014-04-16 09:26:00,52.4,36.2,30.13,South,180,15.2,15.2,54,0.00,,,0.24,WUHU216HW,2014-04-16 14:26:00,
2014-04-16 09:31:00,52.9,36.6,30.13,South,180,14.3,15.2,54,0.00,,,0.24,WUHU216HW,2014-04-16 14:31:00,
2014-04-16 09:36:00,53.5,36.7,30.13,SSE,158,10.7,16.1,53,0.00,,,0.24,WUHU216HW,2014-04-16 14:36:00,
2014-04-16 09:41:00,54.2,36.9,30.13,SSE,158,10.5,16.1,52,0.00,,,0.24,WUHU216HW,2014-04-16 14:41:00,
2014-04-16 09:46:00,54.7,36.5,30.13,SSE,158,12.8,13.6,50,0.00,,,0.24,WUHU216HW,2014-04-16 14:46:00,
2014-04-16 09:51:00,55.1,36.7,30.13,SSE,158,10.3,15.7,50,0.00,,,0.24,WUHU216HW,2014-04-16 14:51:00,
2014-04-16 09:56:00,55.4,37.1,30.13,SSE,158,13.6,15.9,50,0.00,,,0.24,WUHU216HW,2014-04-16 14:56:00,
2014-04-16 10:01:00,55.8,36.4,30.13,South,180,13.2,15.9,48,0.00,,,0.24,WUHU216HW,2014-04-16 15:01:00,
2014-04-16 10:06:00,56.0,36.5,30.13,SE,135,6.9,16.1,48,0.00,,,0.24,WUHU216HW,2014-04-16 15:06:00,
2014-04-16 10:11:00,56.3,36.8,30.13,SE,135,10.1,16.1,48,0.00,,,0.24,WUHU216HW,2014-04-16 15:11:00,
2014-04-16 10:16:00,56.5,36.5,30.13,SSE,158,14.3,15.7,47,0.00,,,0.24,WUHU216HW,2014-04-16 15:16:00,
2014-04-16 10:21:00,57.1,37.0,30.13,SSE,158,10.3,15.7,47,0.00,,,0.24,WUHU216HW,2014-04-16 15:21:00,
2014-04-16 10:26:00,57.2,36.5,30.13,SW,225,13.4,17.7,46,0.00,,,0.24,WUHU216HW,2014-04-16 15:26:00,
2014-04-16 10:31:00,57.6,36.4,30.13,SSE,158,11.6,17.7,45,0.00,,,0.24,WUHU216HW,2014-04-16 15:31:00,